sensor_id;sensor_type;location;lat;lon;timestamp;P1;durP1;ratioP1;P2;durP2;ratioP2
30571;SDS011;17348;50.948;10.696;2023-02-15T00:02:37;192.57;;;10.30;;
30571;SDS011;17348;50.948;10.696;2023-02-15T00:05:40;72.97;;;6.17;;
30571;SDS011;17348;50.948;10.696;2023-02-15T00:08:42;139.00;;;8.80;;
30571;SDS011;17348;50.948;10.696;2023-02-15T00:11:45;104.20;;;8.80;;
30571;SDS011;17348;50.948;10.696;2023-02-15T00:14:53;57.57;;;5.60;;
30571;SDS011;17348;50.948;10.696;2023-02-15T00:17:57;129.77;;;8.60;;
30571;SDS011;17348;50.948;10.696;2023-02-15T00:21:02;13.13;;;5.30;;
30571;SDS011;17348;50.948;10.696;2023-02-15T00:24:07;16.30;;;6.57;;
30571;SDS011;17348;50.948;10.696;2023-02-15T00:27:11;59.13;;;7.43;;
30571;SDS011;17348;50.948;10.696;2023-02-15T00:30:14;12.17;;;6.27;;
30571;SDS011;17348;50.948;10.696;2023-02-15T00:33:18;55.73;;;6.63;;
30571;SDS011;17348;50.948;10.696;2023-02-15T00:36:20;28.60;;;5.50;;
30571;SDS011;17348;50.948;10.696;2023-02-15T00:39:22;40.57;;;6.67;;
30571;SDS011;17348;50.948;10.696;2023-02-15T00:42:26;16.80;;;6.67;;
30571;SDS011;17348;50.948;10.696;2023-02-15T00:45:28;25.70;;;6.07;;
30571;SDS011;17348;50.948;10.696;2023-02-15T00:48:32;24.30;;;6.83;;
30571;SDS011;17348;50.948;10.696;2023-02-15T00:51:36;68.70;;;7.50;;
30571;SDS011;17348;50.948;10.696;2023-02-15T00:54:39;86.90;;;7.00;;
30571;SDS011;17348;50.948;10.696;2023-02-15T00:57:42;82.67;;;7.93;;
30571;SDS011;17348;50.948;10.696;2023-02-15T01:00:45;96.13;;;8.43;;
30571;SDS011;17348;50.948;10.696;2023-02-15T01:03:49;174.13;;;9.10;;
30571;SDS011;17348;50.948;10.696;2023-02-15T01:06:52;51.40;;;5.73;;
30571;SDS011;17348;50.948;10.696;2023-02-15T01:09:54;78.93;;;6.90;;
30571;SDS011;17348;50.948;10.696;2023-02-15T01:12:56;133.97;;;8.50;;
30571;SDS011;17348;50.948;10.696;2023-02-15T01:15:59;108.23;;;8.40;;
30571;SDS011;17348;50.948;10.696;2023-02-15T01:19:03;259.90;;;12.77;;
30571;SDS011;17348;50.948;10.696;2023-02-15T01:22:06;59.73;;;6.70;;
30571;SDS011;17348;50.948;10.696;2023-02-15T01:25:09;70.23;;;6.67;;
30571;SDS011;17348;50.948;10.696;2023-02-15T01:28:11;68.00;;;7.07;;
30571;SDS011;17348;50.948;10.696;2023-02-15T01:31:14;30.90;;;6.30;;
30571;SDS011;17348;50.948;10.696;2023-02-15T01:34:19;68.27;;;6.93;;
30571;SDS011;17348;50.948;10.696;2023-02-15T01:37:22;30.77;;;5.73;;
30571;SDS011;17348;50.948;10.696;2023-02-15T01:40:24;81.70;;;6.97;;
30571;SDS011;17348;50.948;10.696;2023-02-15T01:43:38;38.83;;;6.67;;
30571;SDS011;17348;50.948;10.696;2023-02-15T01:46:49;81.80;;;8.40;;
30571;SDS011;17348;50.948;10.696;2023-02-15T01:49:57;108.97;;;7.50;;
30571;SDS011;17348;50.948;10.696;2023-02-15T01:53:06;18.37;;;6.10;;
30571;SDS011;17348;50.948;10.696;2023-02-15T01:56:16;146.27;;;8.60;;
30571;SDS011;17348;50.948;10.696;2023-02-15T01:59:22;100.83;;;8.53;;
30571;SDS011;17348;50.948;10.696;2023-02-15T02:02:26;56.90;;;7.07;;
30571;SDS011;17348;50.948;10.696;2023-02-15T02:05:30;31.63;;;5.93;;
30571;SDS011;17348;50.948;10.696;2023-02-15T02:08:33;32.93;;;6.80;;
30571;SDS011;17348;50.948;10.696;2023-02-15T02:11:36;59.00;;;6.43;;
30571;SDS011;17348;50.948;10.696;2023-02-15T02:14:40;79.57;;;7.47;;
30571;SDS011;17348;50.948;10.696;2023-02-15T02:17:47;26.73;;;6.13;;
30571;SDS011;17348;50.948;10.696;2023-02-15T02:24:45;128.63;;;7.87;;
30571;SDS011;17348;50.948;10.696;2023-02-15T02:28:07;33.20;;;5.93;;
30571;SDS011;17348;50.948;10.696;2023-02-15T02:31:43;108.53;;;9.60;;
30571;SDS011;17348;50.948;10.696;2023-02-15T02:34:57;169.57;;;9.27;;
30571;SDS011;17348;50.948;10.696;2023-02-15T02:38:05;79.90;;;8.40;;
30571;SDS011;17348;50.948;10.696;2023-02-15T02:41:16;23.97;;;5.83;;
30571;SDS011;17348;50.948;10.696;2023-02-15T02:44:22;85.17;;;8.67;;
30571;SDS011;17348;50.948;10.696;2023-02-15T02:47:32;107.70;;;7.93;;
30571;SDS011;17348;50.948;10.696;2023-02-15T02:50:40;47.53;;;7.77;;
30571;SDS011;17348;50.948;10.696;2023-02-15T02:53:43;105.07;;;9.43;;
30571;SDS011;17348;50.948;10.696;2023-02-15T02:56:46;28.23;;;5.67;;
30571;SDS011;17348;50.948;10.696;2023-02-15T02:59:49;26.70;;;6.47;;
30571;SDS011;17348;50.948;10.696;2023-02-15T03:02:55;129.83;;;9.47;;
30571;SDS011;17348;50.948;10.696;2023-02-15T03:09:11;58.13;;;6.53;;
30571;SDS011;17348;50.948;10.696;2023-02-15T03:12:18;14.03;;;5.83;;
30571;SDS011;17348;50.948;10.696;2023-02-15T03:15:23;85.13;;;11.17;;
30571;SDS011;17348;50.948;10.696;2023-02-15T03:18:49;41.23;;;6.43;;
30571;SDS011;17348;50.948;10.696;2023-02-15T03:22:00;145.47;;;9.63;;
30571;SDS011;17348;50.948;10.696;2023-02-15T03:25:10;30.70;;;6.20;;
30571;SDS011;17348;50.948;10.696;2023-02-15T03:28:17;59.60;;;6.27;;
30571;SDS011;17348;50.948;10.696;2023-02-15T03:31:24;82.43;;;8.83;;
30571;SDS011;17348;50.948;10.696;2023-02-15T03:34:30;70.03;;;6.53;;
30571;SDS011;17348;50.948;10.696;2023-02-15T03:37:35;16.83;;;6.40;;
30571;SDS011;17348;50.948;10.696;2023-02-15T03:40:41;42.40;;;6.17;;
30571;SDS011;17348;50.948;10.696;2023-02-15T03:44:04;42.23;;;6.37;;
30571;SDS011;17348;50.948;10.696;2023-02-15T03:47:11;38.83;;;7.80;;
30571;SDS011;17348;50.948;10.696;2023-02-15T03:50:17;28.93;;;6.77;;
30571;SDS011;17348;50.948;10.696;2023-02-15T03:53:41;52.27;;;7.53;;
30571;SDS011;17348;50.948;10.696;2023-02-15T03:56:45;19.63;;;6.80;;
30571;SDS011;17348;50.948;10.696;2023-02-15T04:00:11;31.57;;;6.30;;
30571;SDS011;17348;50.948;10.696;2023-02-15T04:03:35;12.00;;;6.27;;
30571;SDS011;17348;50.948;10.696;2023-02-15T04:06:40;18.83;;;5.73;;
30571;SDS011;17348;50.948;10.696;2023-02-15T04:09:44;31.20;;;6.10;;
30571;SDS011;17348;50.948;10.696;2023-02-15T04:13:04;16.37;;;6.43;;
30571;SDS011;17348;50.948;10.696;2023-02-15T04:16:06;26.37;;;6.60;;
30571;SDS011;17348;50.948;10.696;2023-02-15T04:19:08;28.43;;;6.53;;
30571;SDS011;17348;50.948;10.696;2023-02-15T04:22:27;12.80;;;6.13;;
30571;SDS011;17348;50.948;10.696;2023-02-15T04:25:49;13.90;;;4.13;;
30571;SDS011;17348;50.948;10.696;2023-02-15T04:28:51;9.00;;;5.20;;
30571;SDS011;17348;50.948;10.696;2023-02-15T04:31:54;11.37;;;5.77;;
30571;SDS011;17348;50.948;10.696;2023-02-15T04:34:57;11.57;;;6.67;;
30571;SDS011;17348;50.948;10.696;2023-02-15T04:37:59;12.03;;;5.40;;
30571;SDS011;17348;50.948;10.696;2023-02-15T04:41:03;15.53;;;6.00;;
30571;SDS011;17348;50.948;10.696;2023-02-15T04:44:05;9.60;;;5.27;;
30571;SDS011;17348;50.948;10.696;2023-02-15T04:47:08;20.03;;;6.60;;
30571;SDS011;17348;50.948;10.696;2023-02-15T04:50:11;12.90;;;6.53;;
30571;SDS011;17348;50.948;10.696;2023-02-15T04:53:13;10.83;;;5.50;;
30571;SDS011;17348;50.948;10.696;2023-02-15T04:56:19;12.67;;;5.73;;
30571;SDS011;17348;50.948;10.696;2023-02-15T04:59:21;14.23;;;6.13;;
30571;SDS011;17348;50.948;10.696;2023-02-15T05:02:24;11.50;;;5.60;;
30571;SDS011;17348;50.948;10.696;2023-02-15T05:05:26;10.33;;;5.40;;
30571;SDS011;17348;50.948;10.696;2023-02-15T05:08:28;13.90;;;5.40;;
30571;SDS011;17348;50.948;10.696;2023-02-15T05:11:33;17.17;;;5.90;;
30571;SDS011;17348;50.948;10.696;2023-02-15T05:14:35;25.13;;;6.47;;
30571;SDS011;17348;50.948;10.696;2023-02-15T05:17:37;24.50;;;6.30;;
30571;SDS011;17348;50.948;10.696;2023-02-15T05:20:40;17.90;;;6.73;;
30571;SDS011;17348;50.948;10.696;2023-02-15T05:23:42;13.30;;;5.33;;
30571;SDS011;17348;50.948;10.696;2023-02-15T05:26:46;18.37;;;6.90;;
30571;SDS011;17348;50.948;10.696;2023-02-15T05:30:06;20.57;;;7.30;;
30571;SDS011;17348;50.948;10.696;2023-02-15T05:33:11;51.07;;;8.10;;
30571;SDS011;17348;50.948;10.696;2023-02-15T05:36:14;37.50;;;8.60;;
30571;SDS011;17348;50.948;10.696;2023-02-15T05:39:16;17.13;;;7.23;;
30571;SDS011;17348;50.948;10.696;2023-02-15T05:42:20;31.27;;;8.87;;
30571;SDS011;17348;50.948;10.696;2023-02-15T05:45:22;68.00;;;9.27;;
30571;SDS011;17348;50.948;10.696;2023-02-15T05:48:25;49.80;;;8.53;;
30571;SDS011;17348;50.948;10.696;2023-02-15T05:51:28;67.90;;;12.33;;
30571;SDS011;17348;50.948;10.696;2023-02-15T05:54:30;28.67;;;7.30;;
30571;SDS011;17348;50.948;10.696;2023-02-15T05:57:34;34.17;;;8.60;;
30571;SDS011;17348;50.948;10.696;2023-02-15T06:00:36;162.67;;;12.90;;
30571;SDS011;17348;50.948;10.696;2023-02-15T06:03:39;90.67;;;11.03;;
30571;SDS011;17348;50.948;10.696;2023-02-15T06:06:41;98.03;;;10.17;;
30571;SDS011;17348;50.948;10.696;2023-02-15T06:09:43;48.53;;;8.03;;
30571;SDS011;17348;50.948;10.696;2023-02-15T06:12:47;52.73;;;8.47;;
30571;SDS011;17348;50.948;10.696;2023-02-15T06:15:49;98.40;;;10.43;;
30571;SDS011;17348;50.948;10.696;2023-02-15T06:18:51;58.33;;;9.10;;
30571;SDS011;17348;50.948;10.696;2023-02-15T06:21:54;24.30;;;7.73;;
30571;SDS011;17348;50.948;10.696;2023-02-15T06:24:56;25.00;;;7.80;;
30571;SDS011;17348;50.948;10.696;2023-02-15T06:28:00;36.27;;;8.37;;
30571;SDS011;17348;50.948;10.696;2023-02-15T06:31:02;64.90;;;8.97;;
30571;SDS011;17348;50.948;10.696;2023-02-15T06:34:04;72.97;;;8.43;;
30571;SDS011;17348;50.948;10.696;2023-02-15T06:37:07;34.70;;;7.50;;
30571;SDS011;17348;50.948;10.696;2023-02-15T06:40:09;39.00;;;7.43;;
30571;SDS011;17348;50.948;10.696;2023-02-15T06:43:13;82.60;;;9.77;;
30571;SDS011;17348;50.948;10.696;2023-02-15T06:46:15;48.77;;;8.70;;
30571;SDS011;17348;50.948;10.696;2023-02-15T06:49:18;56.30;;;8.00;;
30571;SDS011;17348;50.948;10.696;2023-02-15T06:52:20;125.87;;;10.67;;
30571;SDS011;17348;50.948;10.696;2023-02-15T06:55:22;68.80;;;8.83;;
30571;SDS011;17348;50.948;10.696;2023-02-15T06:58:26;60.57;;;8.40;;
30571;SDS011;17348;50.948;10.696;2023-02-15T07:01:28;68.07;;;8.23;;
30571;SDS011;17348;50.948;10.696;2023-02-15T07:04:31;22.33;;;7.13;;
30571;SDS011;17348;50.948;10.696;2023-02-15T07:07:33;16.73;;;6.73;;
30571;SDS011;17348;50.948;10.696;2023-02-15T07:10:35;35.23;;;7.63;;
30571;SDS011;17348;50.948;10.696;2023-02-15T07:13:39;62.87;;;9.67;;
30571;SDS011;17348;50.948;10.696;2023-02-15T07:16:43;53.43;;;8.73;;
30571;SDS011;17348;50.948;10.696;2023-02-15T07:19:47;22.73;;;7.53;;
30571;SDS011;17348;50.948;10.696;2023-02-15T07:22:50;70.30;;;9.33;;
30571;SDS011;17348;50.948;10.696;2023-02-15T07:25:56;137.03;;;13.33;;
30571;SDS011;17348;50.948;10.696;2023-02-15T07:29:00;42.37;;;9.60;;
30571;SDS011;17348;50.948;10.696;2023-02-15T07:32:03;104.93;;;11.10;;
30571;SDS011;17348;50.948;10.696;2023-02-15T07:35:05;46.23;;;9.57;;
30571;SDS011;17348;50.948;10.696;2023-02-15T07:38:07;55.13;;;9.23;;
30571;SDS011;17348;50.948;10.696;2023-02-15T07:41:10;36.13;;;7.67;;
30571;SDS011;17348;50.948;10.696;2023-02-15T07:44:15;154.77;;;12.00;;
30571;SDS011;17348;50.948;10.696;2023-02-15T07:47:18;43.13;;;8.93;;
30571;SDS011;17348;50.948;10.696;2023-02-15T07:50:21;35.93;;;9.40;;
30571;SDS011;17348;50.948;10.696;2023-02-15T07:53:23;44.90;;;9.17;;
30571;SDS011;17348;50.948;10.696;2023-02-15T07:56:26;24.43;;;7.83;;
30571;SDS011;17348;50.948;10.696;2023-02-15T07:59:29;31.93;;;8.97;;
30571;SDS011;17348;50.948;10.696;2023-02-15T08:02:32;16.60;;;7.80;;
30571;SDS011;17348;50.948;10.696;2023-02-15T08:05:37;26.17;;;8.70;;
30571;SDS011;17348;50.948;10.696;2023-02-15T08:08:41;25.80;;;10.53;;
30571;SDS011;17348;50.948;10.696;2023-02-15T08:11:43;19.63;;;8.43;;
30571;SDS011;17348;50.948;10.696;2023-02-15T08:14:47;15.37;;;7.67;;
30571;SDS011;17348;50.948;10.696;2023-02-15T08:17:49;22.37;;;10.23;;
30571;SDS011;17348;50.948;10.696;2023-02-15T08:20:52;24.80;;;9.40;;
30571;SDS011;17348;50.948;10.696;2023-02-15T08:23:54;22.07;;;9.07;;
30571;SDS011;17348;50.948;10.696;2023-02-15T08:26:57;22.33;;;8.70;;
30571;SDS011;17348;50.948;10.696;2023-02-15T08:30:01;17.90;;;8.43;;
30571;SDS011;17348;50.948;10.696;2023-02-15T08:33:04;17.87;;;8.13;;
30571;SDS011;17348;50.948;10.696;2023-02-15T08:36:07;18.87;;;8.37;;
30571;SDS011;17348;50.948;10.696;2023-02-15T08:39:11;17.90;;;8.20;;
30571;SDS011;17348;50.948;10.696;2023-02-15T08:42:15;19.27;;;8.80;;
30571;SDS011;17348;50.948;10.696;2023-02-15T08:45:22;17.70;;;8.43;;
30571;SDS011;17348;50.948;10.696;2023-02-15T08:48:25;20.70;;;7.43;;
30571;SDS011;17348;50.948;10.696;2023-02-15T08:51:29;19.03;;;8.90;;
30571;SDS011;17348;50.948;10.696;2023-02-15T08:54:33;21.33;;;8.60;;
30571;SDS011;17348;50.948;10.696;2023-02-15T08:57:35;19.93;;;8.93;;
30571;SDS011;17348;50.948;10.696;2023-02-15T09:00:40;16.13;;;7.13;;
30571;SDS011;17348;50.948;10.696;2023-02-15T09:03:42;22.17;;;9.83;;
30571;SDS011;17348;50.948;10.696;2023-02-15T09:06:46;19.50;;;9.67;;
30571;SDS011;17348;50.948;10.696;2023-02-15T09:09:49;22.07;;;8.93;;
30571;SDS011;17348;50.948;10.696;2023-02-15T09:12:51;25.97;;;10.47;;
30571;SDS011;17348;50.948;10.696;2023-02-15T09:15:59;23.77;;;10.20;;
30571;SDS011;17348;50.948;10.696;2023-02-15T09:19:02;22.57;;;10.47;;
30571;SDS011;17348;50.948;10.696;2023-02-15T09:22:06;20.60;;;9.47;;
30571;SDS011;17348;50.948;10.696;2023-02-15T09:25:08;20.60;;;9.77;;
30571;SDS011;17348;50.948;10.696;2023-02-15T09:28:10;21.77;;;9.93;;
30571;SDS011;17348;50.948;10.696;2023-02-15T09:31:15;25.63;;;10.00;;
30571;SDS011;17348;50.948;10.696;2023-02-15T09:34:19;24.90;;;10.13;;
30571;SDS011;17348;50.948;10.696;2023-02-15T09:37:22;20.13;;;9.53;;
30571;SDS011;17348;50.948;10.696;2023-02-15T09:40:25;23.33;;;10.30;;
30571;SDS011;17348;50.948;10.696;2023-02-15T09:43:32;25.50;;;11.10;;
30571;SDS011;17348;50.948;10.696;2023-02-15T09:46:47;23.40;;;10.20;;
30571;SDS011;17348;50.948;10.696;2023-02-15T09:50:03;19.30;;;8.53;;
30571;SDS011;17348;50.948;10.696;2023-02-15T09:53:15;30.80;;;12.93;;
30571;SDS011;17348;50.948;10.696;2023-02-15T09:56:37;19.30;;;10.20;;
30571;SDS011;17348;50.948;10.696;2023-02-15T09:59:45;17.00;;;8.27;;
30571;SDS011;17348;50.948;10.696;2023-02-15T10:03:03;15.00;;;7.20;;
30571;SDS011;17348;50.948;10.696;2023-02-15T10:06:19;16.67;;;7.57;;
30571;SDS011;17348;50.948;10.696;2023-02-15T10:09:34;14.87;;;7.10;;
30571;SDS011;17348;50.948;10.696;2023-02-15T10:12:46;22.60;;;10.23;;
30571;SDS011;17348;50.948;10.696;2023-02-15T10:16:00;27.33;;;10.93;;
30571;SDS011;17348;50.948;10.696;2023-02-15T10:19:15;21.77;;;10.90;;
30571;SDS011;17348;50.948;10.696;2023-02-15T10:22:27;22.20;;;11.60;;
30571;SDS011;17348;50.948;10.696;2023-02-15T10:25:40;21.07;;;9.63;;
30571;SDS011;17348;50.948;10.696;2023-02-15T10:28:48;21.43;;;9.40;;
30571;SDS011;17348;50.948;10.696;2023-02-15T10:31:54;23.13;;;10.40;;
30571;SDS011;17348;50.948;10.696;2023-02-15T10:35:09;20.80;;;10.40;;
30571;SDS011;17348;50.948;10.696;2023-02-15T10:38:20;19.95;;;8.65;;
30571;SDS011;17348;50.948;10.696;2023-02-15T10:41:32;21.07;;;9.77;;
30571;SDS011;17348;50.948;10.696;2023-02-15T10:44:47;23.03;;;9.27;;
30571;SDS011;17348;50.948;10.696;2023-02-15T10:48:13;26.50;;;9.57;;
30571;SDS011;17348;50.948;10.696;2023-02-15T10:51:27;17.17;;;8.57;;
30571;SDS011;17348;50.948;10.696;2023-02-15T10:54:36;20.37;;;9.10;;
30571;SDS011;17348;50.948;10.696;2023-02-15T10:57:46;17.37;;;7.83;;
30571;SDS011;17348;50.948;10.696;2023-02-15T11:00:58;9.57;;;5.33;;
30571;SDS011;17348;50.948;10.696;2023-02-15T11:04:11;14.32;;;6.90;;
30571;SDS011;17348;50.948;10.696;2023-02-15T11:07:34;10.40;;;5.23;;
30571;SDS011;17348;50.948;10.696;2023-02-15T11:10:42;21.23;;;7.93;;
30571;SDS011;17348;50.948;10.696;2023-02-15T11:13:54;14.33;;;7.40;;
30571;SDS011;17348;50.948;10.696;2023-02-15T11:17:02;16.43;;;8.00;;
30571;SDS011;17348;50.948;10.696;2023-02-15T11:20:15;9.80;;;5.07;;
30571;SDS011;17348;50.948;10.696;2023-02-15T11:23:21;12.70;;;5.95;;
30571;SDS011;17348;50.948;10.696;2023-02-15T11:26:28;13.50;;;5.77;;
30571;SDS011;17348;50.948;10.696;2023-02-15T11:29:35;11.50;;;5.67;;
30571;SDS011;17348;50.948;10.696;2023-02-15T11:32:43;7.70;;;4.30;;
30571;SDS011;17348;50.948;10.696;2023-02-15T11:35:51;29.57;;;10.17;;
30571;SDS011;17348;50.948;10.696;2023-02-15T11:39:00;25.43;;;9.30;;
30571;SDS011;17348;50.948;10.696;2023-02-15T11:42:11;18.80;;;7.80;;
30571;SDS011;17348;50.948;10.696;2023-02-15T11:45:19;18.97;;;8.53;;
30571;SDS011;17348;50.948;10.696;2023-02-15T11:48:26;16.80;;;8.03;;
30571;SDS011;17348;50.948;10.696;2023-02-15T11:51:32;17.03;;;7.60;;
30571;SDS011;17348;50.948;10.696;2023-02-15T11:54:39;16.93;;;7.00;;
30571;SDS011;17348;50.948;10.696;2023-02-15T11:57:45;7.33;;;4.33;;
30571;SDS011;17348;50.948;10.696;2023-02-15T12:00:54;5.50;;;3.33;;
30571;SDS011;17348;50.948;10.696;2023-02-15T12:04:04;8.73;;;4.07;;
30571;SDS011;17348;50.948;10.696;2023-02-15T12:07:09;6.57;;;3.17;;
30571;SDS011;17348;50.948;10.696;2023-02-15T12:10:20;5.87;;;3.17;;
30571;SDS011;17348;50.948;10.696;2023-02-15T12:13:27;9.57;;;3.40;;
30571;SDS011;17348;50.948;10.696;2023-02-15T12:16:32;7.38;;;3.35;;
30571;SDS011;17348;50.948;10.696;2023-02-15T12:22:46;6.05;;;2.97;;
30571;SDS011;17348;50.948;10.696;2023-02-15T12:25:53;7.45;;;3.17;;
30571;SDS011;17348;50.948;10.696;2023-02-15T12:28:58;6.32;;;3.05;;
30571;SDS011;17348;50.948;10.696;2023-02-15T12:32:03;12.43;;;3.40;;
30571;SDS011;17348;50.948;10.696;2023-02-15T12:35:07;11.70;;;4.15;;
30571;SDS011;17348;50.948;10.696;2023-02-15T12:38:20;7.70;;;4.20;;
30571;SDS011;17348;50.948;10.696;2023-02-15T12:41:26;7.47;;;3.80;;
30571;SDS011;17348;50.948;10.696;2023-02-15T12:44:29;9.73;;;5.68;;
30571;SDS011;17348;50.948;10.696;2023-02-15T12:47:32;8.20;;;4.72;;
30571;SDS011;17348;50.948;10.696;2023-02-15T12:50:36;7.00;;;4.38;;
30571;SDS011;17348;50.948;10.696;2023-02-15T12:53:40;5.25;;;3.65;;
30571;SDS011;17348;50.948;10.696;2023-02-15T12:56:44;6.20;;;3.10;;
30571;SDS011;17348;50.948;10.696;2023-02-15T12:59:50;7.82;;;3.92;;
30571;SDS011;17348;50.948;10.696;2023-02-15T13:02:55;7.35;;;3.20;;
30571;SDS011;17348;50.948;10.696;2023-02-15T13:05:59;7.63;;;3.15;;
30571;SDS011;17348;50.948;10.696;2023-02-15T13:09:12;6.03;;;3.13;;
30571;SDS011;17348;50.948;10.696;2023-02-15T13:12:20;8.30;;;3.25;;
30571;SDS011;17348;50.948;10.696;2023-02-15T13:15:31;5.10;;;3.15;;
30571;SDS011;17348;50.948;10.696;2023-02-15T13:18:37;7.20;;;3.30;;
30571;SDS011;17348;50.948;10.696;2023-02-15T13:21:43;4.78;;;3.00;;
30571;SDS011;17348;50.948;10.696;2023-02-15T13:24:50;5.93;;;2.97;;
30571;SDS011;17348;50.948;10.696;2023-02-15T13:28:00;8.15;;;3.45;;
30571;SDS011;17348;50.948;10.696;2023-02-15T13:31:04;7.60;;;2.97;;
30571;SDS011;17348;50.948;10.696;2023-02-15T13:34:15;8.17;;;4.20;;
30571;SDS011;17348;50.948;10.696;2023-02-15T13:37:24;7.47;;;4.10;;
30571;SDS011;17348;50.948;10.696;2023-02-15T13:40:40;8.40;;;3.35;;
30571;SDS011;17348;50.948;10.696;2023-02-15T13:43:50;7.28;;;3.95;;
30571;SDS011;17348;50.948;10.696;2023-02-15T13:47:03;8.35;;;4.15;;
30571;SDS011;17348;50.948;10.696;2023-02-15T13:50:20;8.43;;;3.75;;
30571;SDS011;17348;50.948;10.696;2023-02-15T13:53:43;6.22;;;3.75;;
30571;SDS011;17348;50.948;10.696;2023-02-15T13:57:09;6.00;;;3.40;;
30571;SDS011;17348;50.948;10.696;2023-02-15T14:00:31;6.70;;;3.90;;
30571;SDS011;17348;50.948;10.696;2023-02-15T14:03:47;5.55;;;3.00;;
30571;SDS011;17348;50.948;10.696;2023-02-15T14:07:10;6.57;;;3.65;;
30571;SDS011;17348;50.948;10.696;2023-02-15T14:10:36;7.53;;;3.75;;
30571;SDS011;17348;50.948;10.696;2023-02-15T14:13:55;7.22;;;3.55;;
30571;SDS011;17348;50.948;10.696;2023-02-15T14:17:20;7.53;;;3.35;;
30571;SDS011;17348;50.948;10.696;2023-02-15T14:20:34;9.30;;;4.55;;
30571;SDS011;17348;50.948;10.696;2023-02-15T14:23:52;17.77;;;4.40;;
30571;SDS011;17348;50.948;10.696;2023-02-15T14:27:12;9.13;;;4.60;;
30571;SDS011;17348;50.948;10.696;2023-02-15T14:30:24;8.45;;;4.13;;
30571;SDS011;17348;50.948;10.696;2023-02-15T14:33:32;9.30;;;4.47;;
30571;SDS011;17348;50.948;10.696;2023-02-15T14:36:38;8.90;;;4.43;;
30571;SDS011;17348;50.948;10.696;2023-02-15T14:39:42;9.93;;;4.75;;
30571;SDS011;17348;50.948;10.696;2023-02-15T14:43:11;13.88;;;4.68;;
30571;SDS011;17348;50.948;10.696;2023-02-15T14:49:29;12.90;;;4.80;;
30571;SDS011;17348;50.948;10.696;2023-02-15T14:52:33;14.18;;;5.55;;
30571;SDS011;17348;50.948;10.696;2023-02-15T14:56:18;15.18;;;5.53;;
30571;SDS011;17348;50.948;10.696;2023-02-15T14:59:26;8.13;;;4.63;;
30571;SDS011;17348;50.948;10.696;2023-02-15T15:02:40;8.43;;;4.00;;
30571;SDS011;17348;50.948;10.696;2023-02-15T15:05:49;8.07;;;4.75;;
30571;SDS011;17348;50.948;10.696;2023-02-15T15:08:54;8.50;;;4.75;;
30571;SDS011;17348;50.948;10.696;2023-02-15T15:12:15;11.98;;;5.07;;
30571;SDS011;17348;50.948;10.696;2023-02-15T15:18:44;14.02;;;5.28;;
30571;SDS011;17348;50.948;10.696;2023-02-15T15:21:53;13.85;;;5.00;;
30571;SDS011;17348;50.948;10.696;2023-02-15T15:24:56;11.88;;;5.32;;
30571;SDS011;17348;50.948;10.696;2023-02-15T15:27:59;12.57;;;4.68;;
30571;SDS011;17348;50.948;10.696;2023-02-15T15:31:04;10.05;;;4.88;;
30571;SDS011;17348;50.948;10.696;2023-02-15T15:37:56;17.17;;;6.47;;
30571;SDS011;17348;50.948;10.696;2023-02-15T15:41:17;17.98;;;7.18;;
30571;SDS011;17348;50.948;10.696;2023-02-15T15:44:36;10.32;;;5.80;;
30571;SDS011;17348;50.948;10.696;2023-02-15T15:48:11;12.07;;;5.88;;
30571;SDS011;17348;50.948;10.696;2023-02-15T15:51:34;15.70;;;6.10;;
30571;SDS011;17348;50.948;10.696;2023-02-15T15:54:43;15.00;;;7.07;;
30571;SDS011;17348;50.948;10.696;2023-02-15T15:57:48;13.10;;;6.13;;
30571;SDS011;17348;50.948;10.696;2023-02-15T16:00:54;10.67;;;5.17;;
30571;SDS011;17348;50.948;10.696;2023-02-15T16:04:00;18.95;;;6.43;;
30571;SDS011;17348;50.948;10.696;2023-02-15T16:07:13;11.90;;;5.40;;
30571;SDS011;17348;50.948;10.696;2023-02-15T16:10:26;16.42;;;6.70;;
30571;SDS011;17348;50.948;10.696;2023-02-15T16:13:32;16.87;;;6.43;;
30571;SDS011;17348;50.948;10.696;2023-02-15T16:16:35;14.97;;;5.70;;
30571;SDS011;17348;50.948;10.696;2023-02-15T16:19:38;15.33;;;6.47;;
30571;SDS011;17348;50.948;10.696;2023-02-15T16:22:42;12.93;;;6.43;;
30571;SDS011;17348;50.948;10.696;2023-02-15T16:25:48;18.20;;;7.87;;
30571;SDS011;17348;50.948;10.696;2023-02-15T16:28:59;29.20;;;11.00;;
30571;SDS011;17348;50.948;10.696;2023-02-15T16:32:02;25.87;;;11.43;;
30571;SDS011;17348;50.948;10.696;2023-02-15T16:35:12;27.20;;;10.60;;
30571;SDS011;17348;50.948;10.696;2023-02-15T16:38:16;21.33;;;9.20;;
30571;SDS011;17348;50.948;10.696;2023-02-15T16:41:22;20.70;;;8.17;;
30571;SDS011;17348;50.948;10.696;2023-02-15T16:44:27;17.60;;;8.60;;
30571;SDS011;17348;50.948;10.696;2023-02-15T16:47:33;21.17;;;8.70;;
30571;SDS011;17348;50.948;10.696;2023-02-15T16:50:41;28.33;;;10.87;;
30571;SDS011;17348;50.948;10.696;2023-02-15T16:53:51;22.17;;;10.93;;
30571;SDS011;17348;50.948;10.696;2023-02-15T16:56:56;30.40;;;11.03;;
30571;SDS011;17348;50.948;10.696;2023-02-15T17:00:00;24.20;;;10.53;;
30571;SDS011;17348;50.948;10.696;2023-02-15T17:03:06;19.93;;;10.57;;
30571;SDS011;17348;50.948;10.696;2023-02-15T17:06:25;19.77;;;7.87;;
30571;SDS011;17348;50.948;10.696;2023-02-15T17:09:29;20.80;;;9.20;;
30571;SDS011;17348;50.948;10.696;2023-02-15T17:12:44;16.63;;;7.93;;
30571;SDS011;17348;50.948;10.696;2023-02-15T17:19:26;49.53;;;17.93;;
30571;SDS011;17348;50.948;10.696;2023-02-15T17:22:31;32.90;;;12.07;;
30571;SDS011;17348;50.948;10.696;2023-02-15T17:25:35;44.90;;;17.03;;
30571;SDS011;17348;50.948;10.696;2023-02-15T17:28:43;65.90;;;21.90;;
30571;SDS011;17348;50.948;10.696;2023-02-15T17:31:48;22.80;;;11.20;;
30571;SDS011;17348;50.948;10.696;2023-02-15T17:34:59;23.83;;;9.53;;
30571;SDS011;17348;50.948;10.696;2023-02-15T17:38:16;23.63;;;10.33;;
30571;SDS011;17348;50.948;10.696;2023-02-15T17:41:20;35.77;;;16.23;;
30571;SDS011;17348;50.948;10.696;2023-02-15T17:44:23;41.60;;;22.50;;
30571;SDS011;17348;50.948;10.696;2023-02-15T17:47:26;23.13;;;11.57;;
30571;SDS011;17348;50.948;10.696;2023-02-15T17:50:29;22.87;;;9.80;;
30571;SDS011;17348;50.948;10.696;2023-02-15T17:53:32;22.07;;;10.93;;
30571;SDS011;17348;50.948;10.696;2023-02-15T17:56:35;23.70;;;10.03;;
30571;SDS011;17348;50.948;10.696;2023-02-15T17:59:39;17.20;;;9.30;;
30571;SDS011;17348;50.948;10.696;2023-02-15T18:03:02;19.07;;;8.77;;
30571;SDS011;17348;50.948;10.696;2023-02-15T18:06:22;26.87;;;10.10;;
30571;SDS011;17348;50.948;10.696;2023-02-15T18:09:42;28.90;;;11.33;;
30571;SDS011;17348;50.948;10.696;2023-02-15T18:13:02;23.63;;;11.67;;
30571;SDS011;17348;50.948;10.696;2023-02-15T18:16:07;30.10;;;13.20;;
30571;SDS011;17348;50.948;10.696;2023-02-15T18:19:14;27.43;;;12.43;;
30571;SDS011;17348;50.948;10.696;2023-02-15T18:22:19;38.50;;;17.80;;
30571;SDS011;17348;50.948;10.696;2023-02-15T18:25:22;32.67;;;14.13;;
30571;SDS011;17348;50.948;10.696;2023-02-15T18:28:24;34.43;;;15.30;;
30571;SDS011;17348;50.948;10.696;2023-02-15T18:31:29;44.43;;;15.60;;
30571;SDS011;17348;50.948;10.696;2023-02-15T18:34:32;28.67;;;13.27;;
30571;SDS011;17348;50.948;10.696;2023-02-15T18:37:37;33.70;;;14.17;;
30571;SDS011;17348;50.948;10.696;2023-02-15T18:40:40;42.13;;;18.10;;